RTS Airport (Reno/Stead) Information

FAA: RTS - ICAO: KRTS

RTS Airport Location

State Nevada
County Washoe
City Reno
RTS Airport is 10 miles northwest of Reno, NV.
Latitude 39-40-05.4370N
Longitude 119-52-35.1827W
Elevation 5,050ft

KRTS Airport METARs

METAR KRTS 060935Z AUTO 00000KT 10SM CLR M01/M04 A3029 RMK AO2
Altimeter 30.29"
Temperature -1.0°C (30.2°F)
Wind 0° at 0KT
Clouds Skies are clear.
Visibility 10.0mi
Time observed: 2021-12-06T09:35:00Z

RTS Airport Details

Status Operational
Activation August 1943
Ownership Public
Usage Public
Chart SAN FRANCISCO
ATC on-site No
Beacon schedule sunset-sunrise
Beacon color clear green

RTS Airport Contacts

Owner RENO TAHOE ARPT AUTH
Owner address P.O. BOX 12490, RENO, NV 89510
Owner phone 775-328-6400
Manager SCOTT TAYLOR
Manager address 601 NEVADA HWY, BOULDER CITY, NV 89005
Manager phone (702) 293-8971

RTS Airport (Reno/Stead) Radio Frequencies

RTS (Airport) Radio Frequencies

UNICOM 122.7
Common traffic advisory frequency (CTAF) 122.7